createdAt,value
2018-04-11T00:00:05.913Z,15.30
2018-04-11T00:02:33.445Z,15.20
2018-04-11T00:05:01.010Z,15.30
2018-04-11T00:07:28.556Z,15.20
2018-04-11T00:09:56.119Z,15.10
2018-04-11T00:12:23.714Z,15.10
2018-04-11T00:14:51.285Z,15.10
2018-04-11T00:17:19.134Z,15.10
2018-04-11T00:19:46.708Z,15.00
2018-04-11T00:22:14.259Z,15.00
2018-04-11T00:24:41.818Z,15.00
2018-04-11T00:27:09.349Z,15.00
2018-04-11T00:29:36.931Z,15.00
2018-04-11T00:32:04.472Z,15.00
2018-04-11T00:34:32.038Z,15.00
2018-04-11T00:36:59.569Z,15.00
2018-04-11T00:39:27.116Z,15.00
2018-04-11T00:41:54.648Z,14.90
2018-04-11T00:44:22.982Z,14.80
2018-04-11T00:46:50.527Z,14.80
2018-04-11T00:49:18.092Z,14.80
2018-04-11T00:51:45.632Z,14.70
2018-04-11T00:54:13.155Z,14.70
2018-04-11T00:56:41.651Z,14.70
2018-04-11T00:59:09.960Z,14.60
2018-04-11T01:01:37.514Z,14.60
2018-04-11T01:04:06.847Z,14.60
2018-04-11T01:06:34.411Z,14.60
2018-04-11T01:09:01.964Z,14.50
2018-04-11T01:11:29.527Z,14.50
2018-04-11T01:13:57.074Z,14.50
2018-04-11T01:16:24.635Z,14.40
2018-04-11T01:18:52.159Z,14.40
2018-04-11T01:21:19.723Z,14.30
2018-04-11T01:23:47.275Z,14.30
2018-04-11T01:26:14.846Z,14.30
2018-04-11T01:28:42.383Z,14.20
2018-04-11T01:31:09.939Z,14.20
2018-04-11T01:33:38.419Z,14.10
2018-04-11T01:36:06.737Z,14.10
2018-04-11T01:38:34.289Z,14.00
2018-04-11T01:41:01.857Z,14.00
2018-04-11T01:43:29.409Z,14.00
2018-04-11T01:45:56.983Z,14.00
2018-04-11T01:48:24.531Z,14.00
2018-04-11T01:50:52.071Z,13.90
2018-04-11T01:53:19.637Z,13.90
2018-04-11T01:55:47.203Z,13.80
2018-04-11T01:58:16.572Z,13.80
2018-04-11T02:00:44.107Z,13.80
2018-04-11T02:03:11.652Z,13.80
2018-04-11T02:05:39.206Z,13.80
2018-04-11T02:08:06.759Z,13.70
2018-04-11T02:10:34.293Z,13.70
2018-04-11T02:13:01.839Z,13.70
2018-04-11T02:15:30.136Z,13.60
2018-04-11T02:17:57.691Z,13.60
2018-04-11T02:20:25.216Z,13.70
2018-04-11T02:22:53.539Z,13.60
2018-04-11T02:25:21.119Z,13.60
2018-04-11T02:27:48.684Z,13.60
2018-04-11T02:30:16.222Z,13.60
2018-04-11T02:32:43.804Z,13.60
2018-04-11T02:35:11.344Z,13.50
2018-04-11T02:37:38.924Z,13.50
2018-04-11T02:40:06.474Z,13.50
2018-04-11T02:42:34.091Z,13.40
2018-04-11T02:45:01.623Z,13.40
2018-04-11T02:47:29.180Z,13.30
2018-04-11T02:49:56.735Z,13.30
2018-04-11T02:52:25.109Z,13.30
2018-04-11T02:54:52.650Z,13.30
2018-04-11T02:57:20.230Z,13.20
2018-04-11T02:59:49.266Z,13.20
2018-04-11T03:02:16.838Z,13.20
2018-04-11T03:04:44.371Z,13.30
2018-04-11T03:07:12.948Z,13.30
2018-04-11T03:09:40.456Z,13.30
2018-04-11T03:12:08.037Z,13.20
2018-04-11T03:14:35.582Z,13.20
2018-04-11T03:17:03.203Z,13.20
2018-04-11T03:19:30.753Z,13.10
2018-04-11T03:21:59.089Z,13.10
2018-04-11T03:24:26.620Z,13.00
2018-04-11T03:26:54.953Z,13.00
2018-04-11T03:29:23.248Z,13.00
2018-04-11T03:31:50.824Z,13.00
2018-04-11T03:34:18.379Z,12.90
2018-04-11T03:36:45.956Z,13.00
2018-04-11T03:39:13.503Z,13.00
2018-04-11T03:41:41.070Z,13.00
2018-04-11T03:44:08.611Z,13.00
2018-04-11T03:46:36.196Z,13.00
2018-04-11T03:49:03.868Z,13.00
2018-04-11T03:51:31.440Z,13.00
2018-04-11T03:53:58.975Z,13.10
2018-04-11T03:56:26.552Z,13.00
2018-04-11T03:58:54.300Z,13.00
2018-04-11T04:01:21.868Z,12.90
2018-04-11T04:03:49.408Z,12.90
2018-04-11T04:06:17.396Z,12.80
2018-04-11T04:08:44.953Z,12.80
2018-04-11T04:11:12.488Z,12.80
2018-04-11T04:13:51.971Z,12.80
2018-04-11T04:16:31.918Z,12.80
2018-04-11T04:19:11.571Z,12.80
2018-04-11T04:21:39.510Z,12.90
2018-04-11T04:24:09.708Z,12.80
2018-04-11T04:26:37.243Z,12.90
2018-04-11T04:29:04.819Z,12.80
2018-04-11T04:31:32.348Z,12.90
2018-04-11T04:34:00.124Z,12.90
2018-04-11T04:36:28.436Z,13.00
2018-04-11T04:38:56.016Z,12.90
2018-04-11T04:41:23.573Z,13.00
2018-04-11T04:43:51.262Z,13.10
2018-04-11T04:46:19.555Z,13.10
2018-04-11T04:48:47.137Z,13.10
2018-04-11T04:51:14.927Z,13.10
2018-04-11T04:53:42.479Z,13.20
2018-04-11T04:56:10.024Z,13.20
2018-04-11T04:58:37.587Z,13.20
2018-04-11T05:01:05.119Z,13.30
2018-04-11T05:03:32.689Z,13.20
2018-04-11T05:06:00.999Z,13.30
2018-04-11T05:08:28.576Z,13.20
2018-04-11T05:10:56.114Z,13.30
2018-04-11T05:13:24.008Z,13.30
2018-04-11T05:15:51.743Z,13.30
2018-04-11T05:18:19.532Z,13.40
2018-04-11T05:20:47.076Z,13.50
2018-04-11T05:23:14.643Z,13.50
2018-04-11T05:25:42.204Z,13.60
2018-04-11T05:28:09.801Z,13.60
2018-04-11T05:30:38.103Z,13.70
2018-04-11T05:33:06.219Z,13.70
2018-04-11T05:35:33.788Z,13.70
2018-04-11T05:38:02.098Z,13.80
2018-04-11T05:40:29.699Z,13.80
2018-04-11T05:42:57.279Z,13.90
2018-04-11T05:45:24.916Z,13.90
2018-04-11T05:47:52.478Z,13.90
2018-04-11T05:50:20.308Z,14.00
2018-04-11T05:52:48.624Z,14.10
2018-04-11T05:55:16.243Z,14.10
2018-04-11T05:57:43.809Z,14.10
2018-04-11T06:00:11.368Z,14.20
2018-04-11T06:02:39.687Z,14.30
2018-04-11T06:05:07.539Z,14.30
2018-04-11T06:07:35.103Z,14.30
2018-04-11T06:10:02.659Z,14.40
2018-04-11T06:12:30.247Z,14.40
2018-04-11T06:14:57.816Z,14.40
2018-04-11T06:17:25.380Z,14.50
2018-04-11T06:19:52.929Z,14.60
2018-04-11T06:22:20.516Z,14.60
2018-04-11T06:24:48.825Z,14.80
2018-04-11T06:27:16.395Z,14.80
2018-04-11T06:29:43.934Z,14.90
2018-04-11T06:32:12.352Z,15.10
2018-04-11T06:34:39.889Z,15.10
2018-04-11T06:37:07.455Z,15.20
2018-04-11T06:39:35.023Z,15.30
2018-04-11T06:42:02.606Z,15.30
2018-04-11T06:44:30.145Z,15.40
2018-04-11T06:46:57.711Z,15.40
2018-04-11T06:49:25.314Z,15.30
2018-04-11T06:51:52.845Z,15.30
2018-04-11T06:54:20.545Z,15.40
2018-04-11T06:56:48.956Z,15.40
2018-04-11T06:59:16.542Z,15.40
2018-04-11T07:01:44.347Z,15.50
2018-04-11T07:04:12.673Z,15.60
2018-04-11T07:06:40.259Z,15.60
2018-04-11T07:09:07.795Z,15.60
2018-04-11T07:11:35.452Z,15.70
2018-04-11T07:14:03.033Z,15.70
2018-04-11T07:16:30.649Z,15.70
2018-04-11T07:18:58.171Z,15.80
2018-04-11T07:21:25.704Z,15.80
2018-04-11T07:23:53.354Z,15.90
2018-04-11T07:26:20.890Z,15.90
2018-04-11T07:28:48.477Z,15.90
2018-04-11T07:31:16.027Z,16.00
2018-04-11T07:33:43.561Z,16.00
2018-04-11T07:36:11.140Z,16.10
2018-04-11T07:38:38.693Z,16.00
2018-04-11T07:41:06.277Z,16.10
2018-04-11T07:43:33.820Z,16.00
2018-04-11T07:46:01.414Z,16.10
2018-04-11T07:48:28.953Z,16.10
2018-04-11T07:50:56.561Z,16.10
2018-04-11T07:53:24.881Z,16.30
2018-04-11T07:55:52.440Z,16.30
2018-04-11T07:58:20.043Z,16.40
2018-04-11T08:00:47.899Z,16.60
2018-04-11T08:03:15.712Z,16.80
2018-04-11T08:05:43.229Z,16.90
2018-04-11T08:08:10.777Z,17.00
2018-04-11T08:10:38.344Z,17.20
2018-04-11T08:13:05.915Z,17.30
2018-04-11T08:15:34.248Z,17.50
2018-04-11T08:18:01.833Z,17.50
2018-04-11T08:20:29.384Z,17.60
2018-04-11T08:22:56.951Z,17.60
2018-04-11T08:25:24.532Z,17.70
2018-04-11T08:27:52.099Z,17.80
2018-04-11T08:30:20.414Z,18.20
2018-04-11T08:32:47.989Z,18.10
2018-04-11T08:35:15.525Z,18.20
2018-04-11T08:37:43.071Z,18.30
2018-04-11T08:40:10.583Z,18.30
2018-04-11T08:42:38.151Z,18.20
2018-04-11T08:45:05.727Z,18.20
2018-04-11T08:47:33.368Z,18.20
2018-04-11T08:50:00.911Z,18.20
2018-04-11T08:52:28.542Z,18.20
2018-04-11T08:54:56.076Z,18.30
2018-04-11T08:57:23.663Z,18.40
2018-04-11T08:59:51.236Z,18.70
2018-04-11T09:02:18.774Z,18.70
2018-04-11T09:04:46.337Z,18.70
2018-04-11T09:07:13.870Z,18.80
2018-04-11T09:09:42.228Z,19.30
2018-04-11T09:12:09.889Z,19.30
2018-04-11T09:14:37.473Z,19.50
2018-04-11T09:17:05.763Z,19.70
2018-04-11T09:19:33.393Z,19.70
2018-04-11T09:22:00.987Z,19.80
2018-04-11T09:24:28.739Z,20.00
2018-04-11T09:26:57.046Z,20.20
2018-04-11T09:29:24.624Z,20.20
2018-04-11T09:31:52.259Z,20.10
2018-04-11T09:34:19.773Z,19.90
2018-04-11T09:36:47.318Z,19.80
2018-04-11T09:39:14.884Z,19.70
2018-04-11T09:41:42.420Z,19.70
2018-04-11T09:44:10.144Z,19.60
2018-04-11T09:46:37.710Z,19.50
2018-04-11T09:49:05.379Z,19.50
2018-04-11T09:51:32.956Z,19.50
2018-04-11T09:54:00.502Z,19.50
2018-04-11T09:56:28.093Z,19.40
2018-04-11T09:58:55.651Z,19.50
2018-04-11T10:01:23.221Z,19.50
2018-04-11T10:03:50.914Z,19.50
2018-04-11T10:06:19.348Z,19.60
2018-04-11T10:08:46.923Z,19.50
2018-04-11T10:11:14.720Z,19.50
2018-04-11T10:13:43.126Z,19.70
2018-04-11T10:16:10.711Z,19.60
2018-04-11T10:18:38.453Z,19.70
2018-04-11T10:21:06.039Z,19.90
2018-04-11T10:23:33.611Z,19.90
2018-04-11T10:26:01.184Z,19.90
2018-04-11T10:28:28.750Z,20.00
2018-04-11T10:30:57.082Z,20.20
2018-04-11T10:33:24.643Z,20.20
2018-04-11T10:35:52.501Z,20.40
2018-04-11T10:38:20.048Z,20.80
2018-04-11T10:40:47.593Z,21.00
2018-04-11T10:43:15.277Z,21.10
2018-04-11T10:45:42.829Z,21.30
2018-04-11T10:48:10.398Z,21.30
2018-04-11T10:50:37.938Z,21.20
2018-04-11T10:53:05.528Z,21.10
2018-04-11T10:55:33.074Z,21.00
2018-04-11T10:58:00.672Z,20.80
2018-04-11T11:00:28.203Z,20.70
2018-04-11T11:02:55.770Z,20.70
2018-04-11T11:05:23.319Z,20.70
2018-04-11T11:07:50.954Z,20.70
2018-04-11T11:10:18.496Z,20.70
2018-04-11T11:12:46.060Z,20.80
2018-04-11T11:15:14.359Z,20.90
2018-04-11T11:17:41.932Z,20.90
2018-04-11T11:20:09.468Z,21.00
2018-04-11T11:22:37.041Z,21.10
2018-04-11T11:25:04.585Z,21.10
2018-04-11T11:27:33.192Z,21.00
2018-04-11T11:30:00.765Z,21.00
2018-04-11T11:32:28.299Z,21.00
2018-04-11T11:34:55.861Z,21.10
2018-04-11T11:37:23.441Z,21.10
2018-04-11T11:39:51.035Z,21.20
2018-04-11T11:42:19.349Z,21.20
2018-04-11T11:44:46.925Z,21.20
2018-04-11T11:47:14.466Z,21.20
2018-04-11T11:49:42.029Z,21.30
2018-04-11T11:52:09.584Z,21.30
2018-04-11T11:54:37.883Z,21.70
2018-04-11T11:57:05.429Z,21.70
2018-04-11T11:59:33.010Z,21.90
2018-04-11T12:02:00.568Z,22.00
2018-04-11T12:04:28.139Z,22.10
2018-04-11T12:06:55.758Z,22.10
2018-04-11T12:09:23.304Z,22.10
2018-04-11T12:11:51.631Z,21.90
2018-04-11T12:14:19.200Z,21.90
2018-04-11T12:16:46.736Z,21.90
2018-04-11T12:19:14.296Z,21.90
2018-04-11T12:21:41.832Z,21.90
2018-04-11T12:24:10.300Z,22.00
2018-04-11T12:26:38.598Z,21.90
2018-04-11T12:29:06.141Z,21.90
2018-04-11T12:31:35.080Z,21.90
2018-04-11T12:34:02.646Z,21.80
2018-04-11T12:36:30.217Z,21.80
2018-04-11T12:38:57.771Z,21.80
2018-04-11T12:41:25.363Z,21.80
2018-04-11T12:43:53.891Z,21.90
2018-04-11T12:46:21.433Z,21.80
2018-04-11T12:48:49.032Z,21.80
2018-04-11T12:51:16.644Z,21.80
2018-04-11T12:53:44.232Z,21.70
2018-04-11T12:56:11.760Z,21.80
2018-04-11T12:58:42.123Z,21.90
2018-04-11T13:01:09.679Z,21.80
2018-04-11T13:03:37.248Z,21.80
2018-04-11T13:06:04.798Z,21.70
2018-04-11T13:08:32.452Z,21.60
2018-04-11T13:11:00.146Z,21.60
2018-04-11T13:13:27.715Z,21.50
2018-04-11T13:15:55.256Z,21.50
2018-04-11T13:18:23.102Z,21.70
2018-04-11T13:20:50.617Z,21.80
2018-04-11T13:23:18.188Z,22.20
2018-04-11T13:25:46.508Z,23.20
2018-04-11T13:28:14.092Z,23.20
2018-04-11T13:30:41.631Z,23.20
2018-04-11T13:33:09.271Z,23.60
2018-04-11T13:35:36.823Z,23.80
2018-04-11T13:38:04.391Z,23.40
2018-04-11T13:40:31.935Z,23.90
2018-04-11T13:42:59.521Z,23.30
2018-04-11T13:45:27.062Z,22.90
2018-04-11T13:47:54.633Z,22.60
2018-04-11T13:50:22.181Z,22.30
2018-04-11T13:52:50.477Z,22.30
2018-04-11T13:55:18.031Z,22.20
2018-04-11T13:57:45.798Z,22.10
2018-04-11T14:00:13.328Z,21.90
2018-04-11T14:02:40.892Z,21.80
2018-04-11T14:05:08.425Z,21.60
2018-04-11T14:07:36.764Z,22.00
2018-04-11T14:10:04.328Z,22.00
2018-04-11T14:12:31.869Z,22.60
2018-04-11T14:14:59.435Z,22.60
2018-04-11T14:17:26.981Z,22.50
2018-04-11T14:19:54.559Z,23.30
2018-04-11T14:22:22.109Z,24.30
2018-04-11T14:24:49.686Z,24.70
2018-04-11T14:27:17.228Z,25.10
2018-04-11T14:29:44.808Z,25.20
2018-04-11T14:32:12.509Z,25.30
2018-04-11T14:34:40.852Z,25.30
2018-04-11T14:37:08.405Z,25.20
2018-04-11T14:39:36.113Z,25.30
2018-04-11T14:42:04.410Z,25.50
2018-04-11T14:44:32.182Z,25.40
2018-04-11T14:47:00.467Z,25.30
2018-04-11T14:49:28.159Z,25.30
2018-04-11T14:51:55.696Z,25.50
2018-04-11T14:54:23.274Z,25.50
2018-04-11T14:56:50.827Z,25.30
2018-04-11T14:59:18.400Z,25.00
2018-04-11T15:01:45.976Z,25.50
2018-04-11T15:04:13.540Z,24.70
2018-04-11T15:06:41.852Z,24.30
2018-04-11T15:09:09.424Z,24.30
2018-04-11T15:11:36.963Z,23.90
2018-04-11T15:14:05.257Z,23.90
2018-04-11T15:16:32.821Z,23.90
2018-04-11T15:19:00.411Z,23.90
2018-04-11T15:21:27.989Z,23.70
2018-04-11T15:23:55.765Z,23.60
2018-04-11T15:26:23.379Z,23.50
2018-04-11T15:28:50.928Z,23.20
2018-04-11T15:31:18.484Z,23.00
2018-04-11T15:33:46.087Z,22.80
2018-04-11T15:36:13.665Z,22.60
2018-04-11T15:38:41.208Z,22.50
2018-04-11T15:41:08.797Z,22.30
2018-04-11T15:43:36.339Z,22.20
2018-04-11T15:49:05.290Z,21.80
2018-04-11T15:51:32.868Z,21.80
2018-04-11T15:54:00.432Z,21.80
2018-04-11T15:56:28.128Z,21.70
2018-04-11T15:58:55.957Z,21.50
2018-04-11T16:01:23.711Z,21.40
2018-04-11T16:03:51.396Z,21.20
2018-04-11T16:06:19.766Z,21.10
2018-04-11T16:08:47.302Z,21.00
2018-04-11T16:11:14.876Z,20.80
2018-04-11T16:13:42.440Z,20.70
2018-04-11T16:16:10.024Z,20.60
2018-04-11T16:18:37.819Z,20.60
2018-04-11T16:21:06.184Z,20.60
2018-04-11T16:23:33.751Z,20.50
2018-04-11T16:26:02.100Z,20.50
2018-04-11T16:28:29.638Z,20.50
2018-04-11T16:30:57.241Z,20.50
2018-04-11T16:33:24.791Z,20.50
2018-04-11T16:35:52.359Z,20.40
2018-04-11T16:38:19.921Z,20.40
2018-04-11T16:40:48.275Z,20.40
2018-04-11T16:43:15.834Z,20.40
2018-04-11T16:45:45.187Z,20.40
2018-04-11T16:48:12.829Z,20.40
2018-04-11T16:50:41.343Z,20.40
2018-04-11T16:53:08.908Z,20.40
2018-04-11T16:55:36.490Z,20.30
2018-04-11T16:58:04.398Z,20.20
2018-04-11T17:00:31.978Z,20.10
2018-04-11T17:02:59.574Z,20.00
2018-04-11T17:05:27.149Z,20.00
2018-04-11T17:07:54.759Z,19.90
2018-04-11T17:10:22.346Z,19.80
2018-04-11T17:12:50.729Z,19.80
2018-04-11T17:15:18.336Z,19.70
2018-04-11T17:17:47.021Z,19.60
2018-04-11T17:20:15.440Z,19.50
2018-04-11T17:22:54.900Z,19.50
2018-04-11T17:25:34.211Z,19.40
2018-04-11T17:28:27.319Z,19.40
2018-04-11T17:33:51.766Z,19.20
2018-04-11T17:36:19.336Z,19.20
2018-04-11T17:38:46.891Z,19.10
2018-04-11T17:41:14.535Z,19.10
2018-04-11T17:43:42.114Z,19.00
2018-04-11T17:46:09.669Z,19.00
2018-04-11T17:48:37.257Z,19.00
2018-04-11T17:51:04.805Z,18.90
2018-04-11T17:53:32.429Z,18.90
2018-04-11T17:56:00.007Z,18.90
2018-04-11T17:58:27.620Z,18.80
2018-04-11T18:00:55.175Z,18.80
2018-04-11T18:03:22.777Z,18.70
2018-04-11T18:05:50.324Z,18.70
2018-04-11T18:08:17.978Z,18.70
2018-04-11T18:10:45.515Z,18.60
2018-04-11T18:13:13.177Z,18.60
2018-04-11T18:15:40.892Z,18.60
2018-04-11T18:18:08.724Z,18.50
2018-04-11T18:20:36.290Z,18.50
2018-04-11T18:23:04.060Z,18.50
2018-04-11T18:25:32.374Z,18.40
2018-04-11T18:28:00.112Z,18.30
2018-04-11T18:30:27.697Z,18.30
2018-04-11T18:32:55.429Z,18.30
2018-04-11T18:35:23.006Z,18.30
2018-04-11T18:37:50.559Z,18.20
2018-04-11T18:40:18.153Z,18.10
2018-04-11T18:42:45.772Z,18.10
2018-04-11T18:45:14.125Z,18.10
2018-04-11T18:47:42.468Z,18.00
2018-04-11T18:50:10.055Z,18.00
2018-04-11T18:52:38.387Z,18.00
2018-04-11T18:55:06.010Z,18.00
2018-04-11T18:57:33.881Z,17.90
2018-04-11T19:00:01.473Z,17.90
2018-04-11T19:02:29.083Z,17.80
2018-04-11T19:04:56.677Z,17.80
2018-04-11T19:07:24.303Z,17.70
2018-04-11T19:09:51.892Z,17.70
2018-04-11T19:12:20.264Z,17.60
2018-04-11T19:14:47.870Z,17.50
2018-04-11T19:17:15.473Z,17.50
2018-04-11T19:19:43.143Z,17.50
2018-04-11T19:22:10.956Z,17.40
2018-04-11T19:24:38.716Z,17.40
2018-04-11T19:27:06.321Z,17.40
2018-04-11T19:29:33.851Z,17.40
2018-04-11T19:32:01.462Z,17.30
2018-04-11T19:34:29.778Z,17.30
2018-04-11T19:36:57.341Z,17.30
2018-04-11T19:39:25.057Z,17.30
2018-04-11T19:41:53.486Z,17.30
2018-04-11T19:44:21.150Z,17.30
2018-04-11T19:46:48.707Z,17.30
2018-04-11T19:49:16.463Z,17.20
2018-04-11T19:51:44.015Z,17.20
2018-04-11T19:54:11.609Z,17.20
2018-04-11T19:56:39.357Z,17.20
2018-04-11T19:59:07.180Z,17.10
2018-04-11T20:01:42.293Z,17.10
2018-04-11T20:04:09.917Z,17.10
2018-04-11T20:06:37.536Z,17.10
2018-04-11T20:09:05.929Z,17.00
2018-04-11T20:11:33.608Z,17.00
2018-04-11T20:14:01.219Z,17.00
2018-04-11T20:16:28.796Z,17.00
2018-04-11T20:18:57.216Z,16.90
2018-04-11T20:21:24.832Z,16.90
2018-04-11T20:23:52.452Z,16.90
2018-04-11T20:26:20.004Z,16.90
2018-04-11T20:28:47.609Z,16.90
2018-04-11T20:31:15.164Z,16.80
2018-04-11T20:33:43.639Z,16.70
2018-04-11T20:36:11.209Z,16.70
2018-04-11T20:38:38.788Z,16.70
2018-04-11T20:41:07.096Z,16.60
2018-04-11T20:43:34.787Z,16.60
2018-04-11T20:46:02.341Z,16.60
2018-04-11T20:48:29.936Z,16.60
2018-04-11T20:50:57.492Z,16.60
2018-04-11T20:53:25.832Z,16.50
2018-04-11T20:55:53.385Z,16.50
2018-04-11T20:58:20.967Z,16.50
2018-04-11T21:00:48.808Z,16.50
2018-04-11T21:03:16.419Z,16.50
2018-04-11T21:05:44.743Z,16.40
2018-04-11T21:08:12.460Z,16.40
2018-04-11T21:10:40.012Z,16.40
2018-04-11T21:13:08.369Z,16.30
2018-04-11T21:15:35.932Z,16.30
2018-04-11T21:18:03.652Z,16.30
2018-04-11T21:20:31.213Z,16.20
2018-04-11T21:22:58.799Z,16.20
2018-04-11T21:25:26.512Z,16.10
2018-04-11T21:27:54.106Z,16.10
2018-04-11T21:30:21.695Z,16.00
2018-04-11T21:32:49.264Z,16.00
2018-04-11T21:35:16.817Z,15.90
2018-04-11T21:37:44.837Z,15.90
2018-04-11T21:40:12.411Z,15.90
2018-04-11T21:42:40.016Z,15.80
2018-04-11T21:45:07.533Z,15.80
2018-04-11T21:47:35.103Z,15.80
2018-04-11T21:50:02.673Z,15.70
2018-04-11T21:52:30.250Z,15.70
2018-04-11T21:54:57.802Z,15.70
2018-04-11T21:57:25.384Z,15.70
2018-04-11T21:59:53.904Z,15.60
2018-04-11T22:02:21.517Z,15.60
2018-04-11T22:04:49.059Z,15.60
2018-04-11T22:07:16.813Z,15.50
2018-04-11T22:09:44.356Z,15.50
2018-04-11T22:12:11.972Z,15.50
2018-04-11T22:14:40.303Z,15.50
2018-04-11T22:17:07.849Z,15.50
2018-04-11T22:19:35.512Z,15.50
2018-04-11T22:22:03.044Z,15.40
2018-04-11T22:24:31.377Z,15.30
2018-04-11T22:26:59.168Z,15.30
2018-04-11T22:29:27.507Z,15.30
2018-04-11T22:31:55.043Z,15.30
2018-04-11T22:34:22.630Z,15.20
2018-04-11T22:36:50.183Z,15.20
2018-04-11T22:39:17.745Z,15.20
2018-04-11T22:41:45.293Z,15.20
2018-04-11T22:44:13.110Z,15.20
2018-04-11T22:46:40.889Z,15.20
2018-04-11T22:49:08.475Z,15.20
2018-04-11T22:51:36.012Z,15.20
2018-04-11T22:54:04.683Z,15.10
2018-04-11T22:56:32.992Z,15.00
2018-04-11T22:59:00.566Z,15.00
2018-04-11T23:01:28.279Z,15.00
2018-04-11T23:03:56.631Z,14.90
2018-04-11T23:06:24.207Z,14.90
2018-04-11T23:08:51.799Z,14.90
2018-04-11T23:11:19.340Z,14.90
2018-04-11T23:13:47.689Z,14.80
2018-04-11T23:16:15.236Z,14.80
2018-04-11T23:18:43.073Z,14.80
2018-04-11T23:21:10.612Z,14.70
2018-04-11T23:23:38.928Z,14.70
2018-04-11T23:26:06.507Z,14.70
2018-04-11T23:28:34.047Z,14.70
2018-04-11T23:31:01.617Z,14.60
2018-04-11T23:33:29.231Z,14.60
2018-04-11T23:35:56.997Z,14.60
2018-04-11T23:38:24.555Z,14.50
2018-04-11T23:40:52.119Z,14.50
2018-04-11T23:43:20.427Z,14.50
2018-04-11T23:45:47.996Z,14.50
2018-04-11T23:48:15.540Z,14.50
2018-04-11T23:50:43.148Z,14.40
2018-04-11T23:53:10.688Z,14.40
2018-04-11T23:55:38.263Z,14.40
2018-04-11T23:58:05.775Z,14.30
